ADDS METAR Data INFO
IDs: Format: Raw Decoded Include TAF

Data at: 0714 UTC 24 Jun 2018

KGOV 240708Z AUTO 06006KT 2 1/2SM -RA BR OVC003 16/16 A2980 RMK AO2 VIS 2 1/2V5 SLP095 $
KGOV 240658Z AUTO 05005KT 6SM -RA BR OVC003 16/16 A2980 RMK AO2 RAB17E29RAB55 SLP095 P0001 T01610159 $
KGOV 240655Z AUTO 06005KT 7SM -RA OVC003 16/16 A2980 RMK AO2 RAB17E29RAB55 SLP095 $
KGOV 240639Z AUTO 05005KT 4SM BR OVC002 16/16 A2980 RMK AO2 RAB17E29 OVC V BKN SLP095 $
KGOV 240634Z AUTO 05005KT 2 1/2SM BR BKN002 OVC035 16/16 A2981 RMK AO2 VIS 1 1/2V2 1/2 RAB17E29 SLP099 $
KGOV 240629Z AUTO 05006KT 1 5/8SM BR BKN002 BKN030 OVC038 16/16 A2981 RMK AO2 VIS 1 1/2V3 RAB17E29 CIG 002V030 SLP099 $
KGOV 240627Z AUTO 05006KT 1 1/2SM R14/5500FT -RA BR BKN002 BKN030 OVC038 16/16 A2981 RMK AO2 VIS 1 1/2V5 RAB17 CIG 002V030 SLP099 $
KGOV 240622Z AUTO 04005KT 2SM -RA BR BKN002 BKN030 OVC038 16/16 A2981 RMK AO2 VIS 2V7 RAB17 CIG 002V038 SLP099 $
KGOV 240617Z AUTO 03006KT 5SM -RA BR SCT003 BKN030 OVC038 16/16 A2981 RMK AO2 RAB17 PRESRR SLP099 $
KGOV 240558Z AUTO 00000KT 8SM SCT005 OVC038 16/16 A2979 RMK AO2 SLP092 60002 T01620158 10171 20161 50005 $
KGOV 240543Z AUTO 00000KT 8SM SCT003 OVC038 16/16 A2979 RMK AO2 SLP092 $
KGOV 240503Z AUTO 00000KT 3SM BR BKN004 OVC055 16/16 A2979 RMK AO2 CIG 004V060 BKN V SCT SLP092 $
KGOV 240458Z AUTO 00000KT 3SM BR SCT005 OVC060 16/16 A2979 RMK AO2 SLP092 T01620159 401850133 $
KGOV 240413Z AUTO 10003KT 9SM SCT006 OVC044 16/16 A2979 RMK AO2 SLP093 $
KGOV 240408Z AUTO 00000KT 9SM SCT006 BKN015 OVC042 16/16 A2979 RMK AO2 CIG 006V015 SLP093 $
KGOV 240358Z AUTO 09003KT 8SM BKN006 BKN015 OVC041 17/16 A2979 RMK AO2 SLP093 T01650161 $
KGOV 240318Z AUTO 06004KT 9SM OVC005 17/16 A2979 RMK AO2 SLP093 $
KGOV 240258Z AUTO 05006KT 8SM OVC004 17/16 A2978 RMK AO2 SLP090 60002 T01660163 53005 $
KGOV 240158Z AUTO 06005KT 4SM BR OVC002 17/17 A2977 RMK AO2 SLP086 T01680165 $
KGOV 240143Z AUTO 06006KT 3SM BR OVC002 17/17 A2977 RMK AO2 SLP086 $
KGOV 240138Z AUTO 06006KT 2 1/2SM BR OVC003 17/17 A2977 RMK AO2 VIS 1 5/8V2 1/2 SLP086 $
KGOV 240123Z AUTO 05005KT 1 3/8SM BR OVC003 17/17 A2977 RMK AO2 SLP086
KGOV 240118Z AUTO 05004KT 1 1/8SM R14/5500FT BR OVC003 17/17 A2977 RMK AO2 SLP086
KGOV 240113Z AUTO 05005KT 1SM R14/5000FT BR OVC003 17/17 A2976 RMK AO2 SLP083 $
KGOV 240058Z AUTO 05005KT 5/8SM R14/3500FT BR OVC002 17/17 A2976 RMK AO2 RAE03DZB03E23RAB23E35DZB35E46RAB46E47 SLP083 P0002 T01700167 $
KGOV 240047Z AUTO 05005KT 1/2SM R14/2600FT FG BKN002 OVC006 17/17 A2976 RMK AO2 RAE03DZB03E23RAB23E35DZB35E46RAB46E47 BKN V OVC SLP083 $
KGOV 232358Z AUTO 05003KT 3/8SM R14/1800FT -RA FG OVC002 17/17 A2976 RMK AO2 RAB37 SLP083 P0001 60001 T01710168 10185 20171 51006 $
KGOV 232352Z AUTO 05004KT 3/8SM R14/2000FT -RA FG OVC002 17/17 A2976 RMK AO2 RAB37 SLP083 $
KGOV 232342Z AUTO 06004KT 3/4SM R14/4000FT -RA BR OVC002 17/17 A2976 RMK AO2 RAB37 SLP083 $
KGOV 232337Z AUTO 05005KT 1 1/8SM -RA BR OVC002 17/17 A2976 RMK AO2 RAB37 SLP083 $
KGOV 232333Z AUTO 05006KT 1SM R14/5500FT BR OVC002 17/17 A2976 RMK AO2 SLP083 $
KGOV 232318Z AUTO 05003KT 7/8SM R14/4500FT BR OVC002 17/17 A2976 RMK AO2 SLP083 $
KGOV 232313Z AUTO 04003KT 1SM R14/5500FT BR OVC002 17/17 A2976 RMK AO2 SLP083
KGOV 232303Z AUTO 07004KT 1 1/4SM BR OVC002 17/17 A2975 RMK AO2 SLP079
KGOV 232258Z AUTO 06005KT 1SM R14/5000FT BR OVC002 17/17 A2975 RMK AO2 VIS 1V1 1/2 RAB02E18 SLP079 P0000 T01730170 $
KGOV 232253Z AUTO 06005KT 1SM R14/5500FT BR OVC002 17/17 A2975 RMK AO2 VIS 1V1 7/8 RAB02E18 SLP079 $
KGOV 232238Z AUTO 07004KT 1 3/4SM BR OVC003 17/17 A2975 RMK AO2 VIS 1 3/4V2 1/4 RAB02E18 SLP079 $
KGOV 232218Z AUTO 08004KT 2 1/4SM BR OVC003 17/17 A2975 RMK AO2 RAB02E18 OVC V BKN SLP079 $
KGOV 232202Z AUTO 08005KT 2 3/4SM -RA BR BKN003 OVC007 18/17 A2975 RMK AO2 VIS 2 3/4V4 RAB02 CIG 003V007 BKN V FEW SLP078 $
KGOV 232158Z AUTO 07005KT 3SM BR SCT003 OVC007 18/17 A2975 RMK AO2 SLP078 T01770170 $
KGOV 232058Z AUTO 11004KT 9SM OVC009 18/17 A2974 RMK AO2 SLP075 T01830167 52008 $
KGOV 231958Z AUTO 09005KT 10SM OVC009 18/17 A2973 RMK AO2 SLP072 T01840166 $
KGOV 231858Z AUTO 09004KT 10SM OVC009 18/16 A2972 RMK AO2 SLP069 T01820162 $
KGOV 231758Z AUTO 07008KT 10SM OVC008 18/16 A2972 RMK AO2 SLP069 60013 T01780162 10178 20142 58008 $
KGOV 231658Z AUTO 05010KT 10SM OVC007 17/16 A2973 RMK AO2 SLP072 P0002 T01660156 $
KGOV 231648Z AUTO 06006KT 9SM OVC007 17/16 A2974 RMK AO2 SLP076 $
KGOV 231628Z AUTO 05005KT 3SM BR OVC006 16/16 A2975 RMK AO2 SLP079 $
KGOV 231613Z AUTO 04006KT 10SM OVC007 16/15 A2975 RMK AO2 CIG 005V009 SLP079 $
KGOV 231608Z AUTO 03006KT 10SM BKN005 OVC009 16/15 A2975 RMK AO2 CIG 005V011 BKN V FEW SLP079 $
KGOV 231558Z AUTO 04007KT 10SM SCT007 OVC011 16/15 A2974 RMK AO2 RAE54 CIG 007V018 SLP076 P0011 T01570151 $
KGOV 231554Z AUTO 03007KT 2 1/4SM BR SCT005 SCT009 OVC015 16/15 A2974 RMK AO2 VIS 3/8V2 1/4 RAE54 CIG 007V018 SLP076 $
KGOV 231553Z AUTO 03006KT 1 1/8SM -RA BR SCT007 OVC017 16/15 A2975 RMK AO2 VIS 3/8V1 1/8 CIG 007V018 SLP079 $
KGOV 231548Z AUTO 04006KT 3/8SM R14/P6000FT -RA FG FEW003 BKN007 OVC022 16/15 A2975 RMK AO2 CIG 003V012 SLP079 $
KGOV 231543Z AUTO 04006KT 3/8SM R14/1600FT -RA FG BKN003 BKN009 BKN012 OVC024 16/15 A2975 RMK AO2 CIG 003V023 BKN003 V SCT SLP079 $
KGOV 231538Z AUTO 05005KT 3/8SM R14/1800FT -RA FG SCT004 BKN012 OVC022 16/15 A2975 RMK AO2 CIG 002V023 SLP079 $
KGOV 231533Z AUTO 04004KT 3/8SM R14/1800FT -RA FG SCT002 SCT006 OVC023 16/15 A2975 RMK AO2 CIG 002V023 SLP079 $
KGOV 231458Z AUTO 02004KT 1/4SM R14/1400FT -RA FG OVC003 15/15 A2974 RMK AO2 VIS 1/4V3/4 RAB41 OVC V BKN SLP076 P0000 60000 T01540149 53001 $
KGOV 231456Z AUTO 02004KT 1/4SM R14/1600FT -RA FG OVC003 15/15 A2974 RMK AO2 VIS 1/4V1 1/8 RAB41 OVC V BKN SLP076 $
KGOV 231451Z AUTO 01005KT 1/2SM R14/3000FT -RA FG BKN004 OVC009 15/15 A2974 RMK AO2 VIS 1/2V3 RAB41 SLP076 $
KGOV 231446Z AUTO 02003KT 1 1/8SM -RA BR BKN004 OVC009 15/15 A2974 RMK AO2 VIS 1 1/8V5 RAB41 SLP076 $
KGOV 231441Z AUTO 00000KT 3SM -RA BR BKN005 OVC009 15/15 A2974 RMK AO2 RAB41 SLP076 $
KGOV 231428Z AUTO 04005KT 6SM BR BKN005 OVC010 15/15 A2974 RMK AO2 SLP076 $
KGOV 231418Z AUTO 05005KT 4SM BR OVC004 15/15 A2974 RMK AO2 SLP076 $
KGOV 231413Z AUTO 06005KT 3SM BR OVC005 15/15 A2974 RMK AO2 SLP075 $
KGOV 231408Z AUTO 05005KT 2SM BR OVC004 15/15 A2974 RMK AO2 VIS 1 7/8V3 SLP076 $
KGOV 231403Z AUTO 05004KT 2 1/4SM BR OVC004 15/15 A2974 RMK AO2 VIS 2 1/4V4 SLP075 $
KGOV 231358Z AUTO 05004KT 4SM BR OVC003 15/15 A2974 RMK AO2 SLP075 T01500147 $
KGOV 231258Z AUTO 05003KT 6SM BR OVC002 14/14 A2974 RMK AO2 SLP075 T01440142 $
KGOV 231158Z AUTO 08004KT 6SM BR OVC002 14/14 A2974 RMK AO2 RAB08E28 SLP074 P0000 60000 T01440141 10151 20133 55000 $
KGOV 231133Z AUTO 08006KT 6SM BR OVC003 14/14 A2974 RMK AO2 RAB08E28 SLP074 $
KGOV 231128Z AUTO 07004KT 2 3/4SM BR OVC003 14/14 A2974 RMK AO2 VIS 1 1/2V2 3/4 RAB08E28 SLP074 $
KGOV 231118Z AUTO 07006KT 1 1/2SM -RA BR OVC003 14/14 A2974 RMK AO2 VIS 1 1/2V6 RAB08 SLP073 $
KGOV 231113Z AUTO 07005KT 2 1/2SM -RA BR OVC003 15/14 A2974 RMK AO2 VIS 2 1/2V9 RAB08 SLP073 $
KGOV 231108Z AUTO 07006KT 6SM -RA BR OVC004 15/14 A2974 RMK AO2 RAB08 SLP073 $
KGOV 231103Z AUTO 07007KT 9SM OVC004 15/14 A2974 RMK AO2 SLP073 $
KGOV 231058Z AUTO 08007KT 9SM OVC005 15/14 A2974 RMK AO2 SLP073 T01460140 $
KGOV 231018Z AUTO 07008KT 10SM OVC006 15/14 A2973 RMK AO2 SLP069 $
KGOV 230958Z AUTO 08007KT 10SM OVC007 15/14 A2974 RMK AO2 SLP073 T01490137 $
KGOV 230903Z AUTO 07006KT 10SM OVC009 15/13 A2974 RMK AO2 SLP073 $
KGOV 230858Z AUTO 07007KT 10SM OVC010 15/13 A2974 RMK AO2 SLP073 T01500129 57019 $
KGOV 230838Z AUTO 08009KT 10SM OVC010 15/13 A2974 RMK AO2 SLP072 $
KGOV 230758Z AUTO 06007KT 10SM OVC009 15/11 A2975 RMK AO2 SLP076 T01490114 $
KGOV 230738Z AUTO 05006KT 10SM OVC009 15/11 A2976 RMK AO2 SLP079 $
KGOV 230658Z AUTO 05005KT 10SM BKN011 BKN025 BKN160 OVC190 14/09 A2978 RMK AO2 CIG 011V160 SLP086 T01390087 $
KGOV 230653Z AUTO 04005KT 10SM SCT010 BKN024 BKN160 OVC190 14/09 A2978 RMK AO2 CIG 024V190 BKN024 V SCT SLP086 $
KGOV 230633Z AUTO 05005KT 10SM FEW015 SCT021 BKN160 14/08 A2979 RMK AO2 SLP090 $
KGOV 230558Z AUTO 06004KT 10SM BKN017 OVC200 14/08 A2980 RMK AO2 CIG 017V200 SLP093 60000 T01370076 10207 20137 56006 $
KGOV 230553Z AUTO 05004KT 10SM BKN018 OVC200 14/08 A2980 RMK AO2 CIG 017V200 BKN V SCT SLP094 $
KGOV 230548Z AUTO 05003KT 10SM SCT018 OVC200 14/07 A2980 RMK AO2 SLP094 $
KGOV 230533Z AUTO 04003KT 10SM BKN017 BKN190 14/07 A2981 RMK AO2 CIG 017V190 BKN017 V FEW SLP097 $
KGOV 230458Z AUTO 06003KT 10SM SCT170 14/07 A2981 RMK AO2 SLP097 T01420072 402600028 $
KGOV 230358Z AUTO 07006KT 10SM OVC180 16/07 A2981 RMK AO2 SLP098 T01570066 $
KGOV 230258Z AUTO 05004KT 10SM OVC160 17/07 A2982 RMK AO2 RAE23DZB23E24RAB24E25 SLP101 P0000 60000 T01670067 $
KGOV 230225Z AUTO 06006KT 10SM OVC150 17/06 A2982 RMK AO2 RAE23DZB23E24RAB24E25 SLP102 $
KGOV 230223Z AUTO 06006KT 8SM -RA OVC150 17/06 A2982 RMK AO2 SLP102 $
KGOV 230218Z AUTO 06003KT 2 1/4SM -RA OVC150 17/06 A2982 RMK AO2 VIS 7/8V2 1/4 SLP102 $
KGOV 230213Z AUTO 06004KT 1 1/4SM R14/5500FT -RA OVC150 18/06 A2982 RMK AO2 VIS 1/4V1 1/4 SLP101 $
KGOV 230208Z AUTO 07006KT 7/8SM R14/4000FT -RA OVC150 17/06 A2982 RMK AO2 VIS M1/8V7/8 SLP102 $
KGOV 230158Z AUTO 07004KT M1/8SM R14/0600FT RA BKN150 OVC180 18/06 A2983 RMK AO2 RAB33 SLP105 P0000 T01770060 $
KGOV 230143Z AUTO 08004KT M1/8SM R14/1200FT +RA SCT150 OVC170 18/06 A2983 RMK AO2 VIS M1/8V7 RAB33 SLP105 $
KGOV 230138Z AUTO 08005KT 3/8SM R14/P6000FT -RA BKN160 OVC180 18/06 A2982 RMK AO2 VIS 3/8V10 RAB33 SLP102 $
KGOV 230133Z AUTO 07005KT 7SM -RA OVC170 18/06 A2982 RMK AO2 RAB33 SLP102 $
KGOV 230058Z AUTO 08007KT 10SM OVC160 19/05 A2983 RMK AO2 SLP106 T01940053 $
KGOV 222358Z AUTO 08012KT M M M M M RMK AO2 SLPNO $
KGOV 222258Z AUTO 08009KT 10SM FEW280 24/05 A2984 RMK AO2 SLP110 T02420054 $
KGOV 222236Z AUTO 10011KT 10SM FEW160 24/06 A2984 RMK AO2 WSHFT 33 SLP111
KGOV 222058Z AUTO 07010KT 10SM FEW240 SCT330 25/03 A2985 RMK AO2 SLP114 T02500034 57015 $
KGOV 221958Z AUTO 09011KT 10SM SCT220 SCT310 25/02 A2986 RMK AO2 SLP118 T02510015 $